Time;durP1;ratioP1;P1;durP2;ratioP2;P2;SDS_P1;SDS_P2;PMS_P1;PMS_P2;Temp;Humidity;BMP_temperature;BMP_pressure;BME280_temperature;BME280_humidity;BME280_pressure;Samples;Min_cycle;Max_cycle;Signal;HPM_P1;HPM_P2
2021/07/25 00:01:06;;;;;;;17.37;13.25;;;;;;;17.02;72.24;100414.73;1803816;77;22271;-77
2021/07/25 00:03:32;;;;;;;15.65;12.73;;;;;;;17.00;72.34;100418.07;1791790;77;20988;-76
2021/07/25 00:05:58;;;;;;;15.18;13.00;;;;;;;16.99;72.43;100415.06;1792629;77;20959;-78
2021/07/25 00:08:25;;;;;;;14.75;12.30;;;;;;;16.98;72.50;100412.03;1788433;80;21086;-77
2021/07/25 00:10:52;;;;;;;15.53;12.98;;;;;;;16.97;72.58;100417.04;1807896;77;21102;-78
2021/07/25 00:13:19;;;;;;;14.53;12.78;;;;;;;16.96;72.56;100419.38;1818536;77;21710;-77
2021/07/25 00:15:48;;;;;;;16.93;13.08;;;;;;;16.91;72.63;100420.88;1816910;78;20993;-77
2021/07/25 00:18:14;;;;;;;15.88;12.98;;;;;;;16.89;72.62;100415.70;1815222;78;20984;-77
2021/07/25 00:20:41;;;;;;;15.15;13.08;;;;;;;16.86;72.67;100413.34;1791368;77;20980;-78
2021/07/25 00:23:08;;;;;;;14.83;12.80;;;;;;;16.84;72.73;100416.17;1810595;78;21605;-77
2021/07/25 00:25:35;;;;;;;15.98;13.08;;;;;;;16.83;72.79;100417.67;1787851;80;22658;-77
2021/07/25 00:28:03;;;;;;;19.27;12.68;;;;;;;16.81;72.89;100414.34;1789379;77;21435;-78
2021/07/25 00:30:30;;;;;;;14.13;12.50;;;;;;;16.80;72.92;100418.00;1792694;78;21055;-77
2021/07/25 00:32:56;;;;;;;16.10;12.63;;;;;;;16.78;72.91;100414.64;1801900;78;21621;-77
2021/07/25 00:35:23;;;;;;;14.93;13.08;;;;;;;16.74;72.93;100408.80;1796375;78;20980;-78
2021/07/25 00:37:52;;;;;;;14.30;12.80;;;;;;;16.72;72.98;100409.47;1808872;77;22227;-78
2021/07/25 00:40:29;;;;;;;15.08;13.40;;;;;;;16.70;73.01;100408.80;1788938;80;21475;-78
2021/07/25 00:42:55;;;;;;;15.45;12.82;;;;;;;16.68;73.08;100412.09;1788778;80;21414;-78
2021/07/25 00:45:22;;;;;;;17.37;13.48;;;;;;;16.66;73.15;100408.73;1788941;78;21502;-76
2021/07/25 00:47:49;;;;;;;16.32;12.80;;;;;;;16.66;73.17;100417.23;1814231;77;21070;-75
2021/07/25 00:50:16;;;;;;;15.53;12.93;;;;;;;16.64;73.17;100416.06;1798158;78;22650;-75
2021/07/25 00:52:43;;;;;;;18.20;13.32;;;;;;;16.63;73.18;100418.89;1780288;79;20984;-75
2021/07/25 00:55:12;;;;;;;15.35;13.30;;;;;;;16.60;73.18;100417.39;1805550;79;20989;-78
2021/07/25 00:57:39;;;;;;;15.30;13.38;;;;;;;16.60;73.21;100418.72;1805582;79;20996;-78
2021/07/25 01:00:07;;;;;;;16.52;13.22;;;;;;;16.58;73.14;100420.19;1778613;79;20942;-78
2021/07/25 01:02:48;;;;;;;15.88;12.95;;;;;;;16.58;73.02;100422.85;1779313;79;21658;-78
2021/07/25 01:05:21;;;;;;;17.15;12.70;;;;;;;16.56;73.03;100425.34;1792981;79;20961;-78
2021/07/25 01:07:56;;;;;;;16.35;13.40;;;;;;;16.55;73.15;100418.34;1776886;79;21040;-78
2021/07/25 01:10:30;;;;;;;19.60;14.05;;;;;;;16.54;73.19;100419.34;1807077;79;20992;-78
2021/07/25 01:13:17;;;;;;;18.23;14.40;;;;;;;16.53;73.20;100424.34;1807779;79;20979;-78
2021/07/25 01:15:44;;;;;;;20.12;14.60;;;;;;;16.49;73.21;100415.80;1799197;79;21842;-78
2021/07/25 01:18:10;;;;;;;18.50;14.53;;;;;;;16.46;73.21;100420.63;1790748;79;21052;-78
2021/07/25 01:20:36;;;;;;;17.92;14.60;;;;;;;16.42;73.30;100417.45;1791886;79;20925;-78
2021/07/25 01:23:03;;;;;;;17.57;14.90;;;;;;;16.40;73.40;100414.09;1779147;79;20997;-76
2021/07/25 01:25:30;;;;;;;16.95;14.10;;;;;;;16.38;73.47;100409.92;1778851;79;21570;-75
2021/07/25 01:28:04;;;;;;;18.30;14.35;;;;;;;16.37;73.45;100413.58;1786839;79;22517;-75
2021/07/25 01:30:43;;;;;;;18.42;14.53;;;;;;;16.36;73.51;100415.91;1787191;79;21024;-78
2021/07/25 01:33:12;;;;;;;18.17;14.07;;;;;;;16.34;73.58;100416.58;1807170;79;21036;-77
2021/07/25 01:35:39;;;;;;;16.12;14.40;;;;;;;16.31;73.60;100413.73;1785293;79;20993;-78
2021/07/25 01:38:07;;;;;;;17.82;14.68;;;;;;;16.28;73.61;100415.36;1801723;79;20945;-78
2021/07/25 01:40:34;;;;;;;16.37;14.07;;;;;;;16.28;73.54;100408.70;1775593;80;22879;-78
2021/07/25 01:43:00;;;;;;;16.65;14.60;;;;;;;16.27;73.46;100416.36;1775867;79;21016;-76
2021/07/25 01:45:27;;;;;;;14.70;13.13;;;;;;;16.27;73.42;100421.19;1777169;79;20988;-78
2021/07/25 01:47:54;;;;;;;18.60;13.70;;;;;;;16.27;73.54;100420.36;1780457;79;21498;-78
2021/07/25 01:50:21;;;;;;;18.60;14.07;;;;;;;16.25;73.65;100424.52;1757214;80;21060;-78
2021/07/25 01:52:48;;;;;;;15.30;13.30;;;;;;;16.25;73.76;100426.34;1781478;79;21849;-78
2021/07/25 01:55:15;;;;;;;15.13;13.53;;;;;;;16.24;73.82;100428.17;1768539;80;20935;-78
2021/07/25 01:57:42;;;;;;;16.25;14.20;;;;;;;16.23;73.87;100427.01;1779880;79;20997;-78
2021/07/25 02:00:11;;;;;;;18.62;14.47;;;;;;;16.23;73.94;100430.51;1767943;79;20986;-78
2021/07/25 02:02:37;;;;;;;18.35;15.20;;;;;;;16.21;73.96;100432.97;1757490;79;20957;-78
2021/07/25 02:05:05;;;;;;;18.80;15.78;;;;;;;16.20;73.99;100436.63;1739611;80;21839;-78
2021/07/25 02:07:33;;;;;;;19.10;15.48;;;;;;;16.16;74.02;100437.95;1764207;80;21515;-78
2021/07/25 02:09:59;;;;;;;19.52;15.48;;;;;;;16.14;74.04;100439.44;1678437;83;21365;-78
2021/07/25 02:12:26;;;;;;;18.85;15.45;;;;;;;16.12;74.02;100440.59;1700260;82;21084;-78
2021/07/25 02:14:54;;;;;;;21.27;16.20;;;;;;;16.08;74.11;100437.88;1716279;83;21015;-78
2021/07/25 02:17:20;;;;;;;27.27;17.35;;;;;;;16.05;74.26;100443.53;1720401;82;22187;-77
2021/07/25 02:19:47;;;;;;;27.87;19.15;;;;;;;16.04;74.32;100440.03;1701973;83;20956;-78
2021/07/25 02:22:13;;;;;;;27.93;18.23;;;;;;;16.02;74.28;100442.86;1706951;81;21008;-78
2021/07/25 02:24:41;;;;;;;27.55;18.40;;;;;;;15.98;74.34;100440.64;1721849;83;20976;-78
2021/07/25 02:27:08;;;;;;;24.40;17.15;;;;;;;15.97;74.45;100442.47;1701322;83;21487;-78
2021/07/25 02:29:36;;;;;;;26.95;19.00;;;;;;;15.95;74.55;100439.63;1713797;82;21400;-78
2021/07/25 02:32:03;;;;;;;26.37;19.17;;;;;;;15.96;74.57;100448.80;1706635;81;21016;-78
2021/07/25 02:34:29;;;;;;;25.95;18.12;;;;;;;15.95;74.67;100444.95;1751451;80;20964;-78
2021/07/25 02:36:59;;;;;;;23.98;17.25;;;;;;;15.95;74.71;100448.45;1783311;80;21433;-78
2021/07/25 02:39:26;;;;;;;24.77;18.07;;;;;;;15.94;74.81;100448.62;1772985;79;21370;-78
2021/07/25 02:41:53;;;;;;;27.90;18.17;;;;;;;15.96;74.80;100451.95;1776412;80;22866;-78
2021/07/25 02:44:20;;;;;;;25.62;17.80;;;;;;;15.96;74.82;100451.45;1708994;82;21416;-78
2021/07/25 02:46:46;;;;;;;24.98;17.77;;;;;;;15.97;74.82;100454.46;1740382;81;20941;-78
2021/07/25 02:49:12;;;;;;;27.65;18.35;;;;;;;15.98;74.81;100457.95;1727298;80;21068;-78
2021/07/25 02:51:39;;;;;;;26.60;17.92;;;;;;;15.98;74.90;100458.80;1702090;83;20964;-78
2021/07/25 02:54:05;;;;;;;30.20;19.07;;;;;;;15.99;74.91;100463.63;1707588;80;21908;-78
2021/07/25 02:56:32;;;;;;;24.50;18.07;;;;;;;16.00;74.85;100467.95;1725224;82;21007;-78
2021/07/25 02:58:58;;;;;;;23.02;16.82;;;;;;;16.02;74.79;100464.67;1731395;82;21049;-78
2021/07/25 03:01:25;;;;;;;27.17;18.02;;;;;;;16.02;74.78;100470.83;1728673;83;21033;-78
2021/07/25 03:03:51;;;;;;;31.57;18.17;;;;;;;16.03;74.84;100461.02;1708639;81;21114;-78
2021/07/25 03:06:19;;;;;;;26.00;18.50;;;;;;;16.06;74.82;100467.84;1718685;83;21804;-77
2021/07/25 03:08:46;;;;;;;28.30;18.70;;;;;;;16.07;74.88;100466.36;1720124;83;20993;-77
2021/07/25 03:11:12;;;;;;;29.57;18.62;;;;;;;16.11;74.91;100465.54;1711307;82;21492;-76
2021/07/25 03:13:39;;;;;;;27.15;19.00;;;;;;;16.14;75.03;100470.08;1729934;81;21051;-77
2021/07/25 03:16:08;;;;;;;26.75;18.40;;;;;;;16.17;74.94;100469.77;1722342;83;21019;-76
2021/07/25 03:18:35;;;;;;;28.85;18.75;;;;;;;16.25;74.91;100480.48;1703064;83;21791;-77
2021/07/25 03:21:02;;;;;;;30.95;19.15;;;;;;;16.28;74.85;100477.50;1719873;82;21051;-76
2021/07/25 03:23:29;;;;;;;24.90;18.40;;;;;;;16.33;74.91;100477.55;1701042;84;20984;-76
2021/07/25 03:25:55;;;;;;;24.00;18.32;;;;;;;16.38;74.88;100488.56;1721979;80;21031;-77
2021/07/25 03:28:22;;;;;;;27.13;19.35;;;;;;;16.41;74.93;100486.44;1721840;81;21475;-78
2021/07/25 03:30:49;;;;;;;26.17;19.77;;;;;;;16.45;74.95;100485.61;1722829;80;22188;-76
2021/07/25 03:33:17;;;;;;;24.47;19.40;;;;;;;16.50;74.85;100489.96;1724533;82;21063;-76
2021/07/25 03:35:44;;;;;;;23.40;17.90;;;;;;;16.55;74.76;100479.67;1721365;80;21538;-76
2021/07/25 03:38:10;;;;;;;24.75;18.10;;;;;;;16.61;74.66;100484.39;1736714;81;21047;-77
2021/07/25 03:40:40;;;;;;;22.73;18.60;;;;;;;16.66;74.56;100487.91;1713299;81;21042;-76
2021/07/25 03:43:06;;;;;;;28.42;18.30;;;;;;;16.73;74.48;100488.98;1728113;82;21816;-76
2021/07/25 03:45:32;;;;;;;23.62;19.02;;;;;;;16.78;74.44;100491.98;1728600;81;21043;-76
2021/07/25 03:47:59;;;;;;;25.80;18.30;;;;;;;16.83;74.43;100492.36;1737793;81;21484;-77
2021/07/25 03:50:26;;;;;;;21.87;19.07;;;;;;;16.90;74.29;100501.41;1759699;80;21136;-76
2021/07/25 03:52:54;;;;;;;23.32;18.07;;;;;;;16.96;74.17;100499.42;1736773;81;21016;-76
2021/07/25 03:55:20;;;;;;;25.02;18.23;;;;;;;17.04;74.12;100505.30;1675465;83;21814;-76
2021/07/25 03:57:47;;;;;;;22.48;18.45;;;;;;;17.10;74.00;100497.50;1717849;81;21115;-76
2021/07/25 04:00:14;;;;;;;22.45;19.02;;;;;;;17.16;73.88;100495.50;1729663;81;21027;-76
2021/07/25 04:02:41;;;;;;;24.35;18.70;;;;;;;17.26;73.76;100495.86;1759647;80;21090;-76
2021/07/25 04:05:09;;;;;;;23.27;18.98;;;;;;;17.34;73.71;100495.89;1759432;81;20983;-77
2021/07/25 04:07:36;;;;;;;23.18;17.52;;;;;;;17.41;73.66;100499.59;1756921;81;21816;-77
2021/07/25 04:10:03;;;;;;;25.25;18.27;;;;;;;17.47;73.46;100498.95;1744375;81;21037;-76
2021/07/25 04:12:29;;;;;;;22.45;17.85;;;;;;;17.55;73.37;100494.10;1741325;81;21383;-77
2021/07/25 04:14:57;;;;;;;26.10;19.35;;;;;;;17.63;73.26;100497.63;1759960;81;21008;-78
2021/07/25 04:17:24;;;;;;;25.55;18.65;;;;;;;17.71;73.14;100494.17;1760091;81;20999;-78
2021/07/25 04:19:50;;;;;;;26.50;18.37;;;;;;;17.80;73.06;100493.69;1734268;81;21796;-78
2021/07/25 04:22:17;;;;;;;25.27;18.40;;;;;;;17.88;73.08;100499.04;1746637;81;21000;-78
2021/07/25 04:24:44;;;;;;;23.87;18.07;;;;;;;17.96;73.13;100497.22;1760008;81;20996;-77
2021/07/25 04:27:11;;;;;;;25.90;17.65;;;;;;;18.05;73.25;100499.39;1740385;81;21036;-78
2021/07/25 04:29:38;;;;;;;24.70;17.75;;;;;;;18.16;73.37;100499.05;1763924;79;20937;-78
2021/07/25 04:32:07;;;;;;;25.35;17.25;;;;;;;18.26;73.35;100497.03;1772277;81;22161;-78
2021/07/25 04:34:34;;;;;;;22.37;17.15;;;;;;;18.37;73.31;100500.36;1789702;79;21436;-78
2021/07/25 04:37:10;;;;;;;24.45;17.73;;;;;;;18.49;73.24;100502.51;1803701;78;21430;-78
2021/07/25 04:39:35;;;;;;;24.27;17.45;;;;;;;18.60;73.09;100499.47;1785048;79;21044;-78
2021/07/25 04:42:03;;;;;;;23.73;17.60;;;;;;;18.70;73.03;100496.64;1771759;81;20997;-78
2021/07/25 04:44:39;;;;;;;25.02;18.23;;;;;;;18.81;72.87;100497.61;1778133;79;22679;-78
2021/07/25 04:47:06;;;;;;;23.45;17.85;;;;;;;18.95;72.83;100501.92;1804095;79;20898;-78
2021/07/25 04:49:41;;;;;;;22.00;17.10;;;;;;;19.07;72.89;100500.53;1778527;79;21427;-78
2021/07/25 04:52:10;;;;;;;22.75;17.37;;;;;;;19.19;73.02;100505.83;1828877;78;21024;-76
2021/07/25 04:54:38;;;;;;;22.00;17.95;;;;;;;19.31;73.05;100503.11;1794259;79;20957;-75
2021/07/25 04:57:06;;;;;;;19.20;17.12;;;;;;;19.43;73.12;100508.91;1813255;77;22666;-75
2021/07/25 04:59:46;;;;;;;21.37;18.75;;;;;;;19.56;73.26;100510.52;1782960;79;21019;-75
2021/07/25 05:02:14;;;;;;;21.00;17.32;;;;;;;19.68;73.33;100517.64;1825534;78;21111;-75
2021/07/25 05:04:42;;;;;;;21.80;18.02;;;;;;;19.81;73.51;100516.57;1810199;78;21031;-78
2021/07/25 05:07:11;;;;;;;19.32;16.80;;;;;;;19.92;73.56;100514.81;1808168;79;20933;-78
2021/07/25 05:09:40;;;;;;;22.25;16.77;;;;;;;20.05;73.41;100516.88;1839457;78;21839;-78
2021/07/25 05:12:22;;;;;;;19.80;16.37;;;;;;;20.16;73.12;100516.95;1829628;78;21530;-78
2021/07/25 05:15:03;;;;;;;21.37;17.23;;;;;;;20.27;73.02;100521.92;1793283;79;21368;-78
2021/07/25 05:17:45;;;;;;;17.45;15.65;;;;;;;20.40;72.86;100522.13;1794851;79;21107;-76
2021/07/25 05:20:16;;;;;;;19.73;15.72;;;;;;;20.53;72.42;100514.30;1789289;78;21023;-76
2021/07/25 05:22:55;;;;;;;17.45;15.05;;;;;;;20.67;72.09;100515.86;1798171;78;21825;-76
2021/07/25 05:25:23;;;;;;;21.25;15.08;;;;;;;20.79;72.00;100514.38;1809449;78;21460;-76
2021/07/25 05:27:53;;;;;;;16.93;15.13;;;;;;;20.93;71.65;100520.75;1807836;79;21547;-77
2021/07/25 05:30:23;;;;;;;18.82;14.78;;;;;;;21.05;71.25;100513.41;1795894;79;21007;-78
2021/07/25 05:32:50;;;;;;;21.27;14.78;;;;;;;21.17;70.82;100515.62;1807485;78;20936;-77
2021/07/25 05:35:17;;;;;;;18.42;14.75;;;;;;;21.29;70.75;100516.83;1796446;79;21825;-78
2021/07/25 05:37:44;;;;;;;16.73;14.05;;;;;;;21.42;70.81;100510.25;1810552;78;21487;-78
2021/07/25 05:40:12;;;;;;;15.20;13.65;;;;;;;21.55;70.48;100513.62;1832631;78;21356;-78
2021/07/25 05:42:39;;;;;;;17.82;13.85;;;;;;;21.64;69.88;100511.98;1803922;79;21593;-78
2021/07/25 05:45:09;;;;;;;17.70;13.40;;;;;;;21.76;69.44;100510.12;1793832;79;20940;-78
2021/07/25 05:47:39;;;;;;;18.20;12.82;;;;;;;21.88;69.09;100512.62;1794144;79;21856;-78
2021/07/25 05:50:07;;;;;;;15.60;12.45;;;;;;;21.98;68.31;100514.47;1791690;79;20931;-78
2021/07/25 05:52:49;;;;;;;15.63;11.48;;;;;;;;;;1802667;79;21032;-78
2021/07/25 05:55:24;;;;;;;13.50;11.97;;;;;;;22.22;67.42;100521.36;1793423;78;20961;-78
2021/07/25 05:57:50;;;;;;;19.45;11.97;;;;;;;22.31;66.93;100524.23;1806041;79;21020;-80
2021/07/25 06:00:18;;;;;;;14.78;11.43;;;;;;;22.40;66.67;100523.06;1799225;79;22162;-78
2021/07/25 06:02:56;;;;;;;17.77;12.13;;;;;;;22.46;65.86;100524.95;1805737;79;21036;-78
2021/07/25 06:05:27;;;;;;;19.00;12.03;;;;;;;22.53;65.37;100525.02;1805433;79;21040;-78
2021/07/25 06:07:54;;;;;;;12.35;10.80;;;;;;;22.63;65.21;100520.62;1778190;79;20994;-78
2021/07/25 06:10:23;;;;;;;16.87;13.30;;;;;;;22.69;64.03;100520.68;1799761;78;21079;-78
2021/07/25 06:12:52;;;;;;;15.80;12.75;;;;;;;22.79;63.73;100522.50;1826178;78;21016;-78
2021/07/25 06:15:21;;;;;;;16.52;12.78;;;;;;;22.86;63.53;100529.29;1800516;79;20939;-77
2021/07/25 06:17:50;;;;;;;17.05;12.15;;;;;;;22.92;62.79;100525.81;1795370;79;21535;-74
2021/07/25 06:20:16;;;;;;;16.77;13.13;;;;;;;22.99;62.09;100520.47;1784325;79;21058;-76
2021/07/25 06:22:48;;;;;;;14.60;12.20;;;;;;;23.07;62.12;100526.53;1795976;78;21541;-76
2021/07/25 06:25:23;;;;;;;15.95;13.13;;;;;;;23.17;61.58;100530.72;1820357;77;21824;-77
2021/07/25 06:27:51;;;;;;;15.23;12.30;;;;;;;23.25;61.04;100527.83;1806084;79;20940;-78
2021/07/25 06:30:20;;;;;;;19.82;12.73;;;;;;;23.32;61.15;100524.14;1776339;80;20992;-77
2021/07/25 06:33:05;;;;;;;15.45;12.43;;;;;;;23.43;60.73;100532.16;1791564;77;21142;-84
2021/07/25 06:35:39;;;;;;;17.55;11.80;;;;;;;23.53;60.41;100529.08;1792530;78;21023;-83
2021/07/25 06:38:09;;;;;;;15.93;11.90;;;;;;;23.63;60.38;100537.12;1817928;77;21813;-82
2021/07/25 06:40:38;;;;;;;14.73;11.80;;;;;;;23.74;60.08;100537.08;1800979;79;21067;-83
2021/07/25 06:43:06;;;;;;;15.55;12.33;;;;;;;23.83;59.34;100530.44;1772685;80;21446;-79
2021/07/25 06:45:34;;;;;;;15.60;11.33;;;;;;;23.91;58.96;100533.46;1779609;78;20984;-84
2021/07/25 06:48:01;;;;;;;17.40;11.28;;;;;;;23.99;58.70;100535.97;1827673;78;20925;-81
2021/07/25 06:50:29;;;;;;;13.25;10.58;;;;;;;24.07;58.53;100529.55;1799965;77;22781;-82
2021/07/25 06:52:56;;;;;;;20.55;11.22;;;;;;;24.16;58.04;100533.72;1798443;79;20965;-81
2021/07/25 06:55:27;;;;;;;16.80;10.90;;;;;;;24.20;57.32;100532.25;1794636;79;21005;-84
2021/07/25 06:57:53;;;;;;;12.20;10.60;;;;;;;24.24;57.24;100533.52;1794266;78;21071;-84
2021/07/25 07:00:19;;;;;;;15.72;10.28;;;;;;;24.30;56.79;100535.36;1797552;78;21313;-81
2021/07/25 07:02:57;;;;;;;11.85;10.13;;;;;;;24.37;56.58;100536.76;1797693;78;22466;-80
2021/07/25 07:05:25;;;;;;;15.40;10.50;;;;;;;24.46;56.75;100532.29;1820159;78;21003;-79
2021/07/25 07:07:54;;;;;;;14.43;11.10;;;;;;;24.51;56.03;100532.51;1830825;78;21482;-80
2021/07/25 07:10:23;;;;;;;15.68;10.60;;;;;;;24.57;56.30;100529.99;1785777;79;20957;-81
2021/07/25 07:12:50;;;;;;;12.85;10.50;;;;;;;24.67;56.06;100529.05;1756168;80;20992;-81
2021/07/25 07:15:18;;;;;;;14.28;11.03;;;;;;;24.72;55.52;100530.09;1776126;80;21769;-81
2021/07/25 07:17:44;;;;;;;13.48;9.80;;;;;;;24.77;55.06;100524.04;1792995;79;21020;-83
2021/07/25 07:20:12;;;;;;;18.07;11.10;;;;;;;24.81;55.05;100532.05;1836605;78;21071;-84
2021/07/25 07:22:39;;;;;;;13.58;10.30;;;;;;;24.86;54.41;100526.83;1818973;78;21527;-81
2021/07/25 07:25:07;;;;;;;19.37;10.20;;;;;;;24.90;54.36;100533.98;1840546;77;21452;-83
2021/07/25 07:27:34;;;;;;;12.35;10.15;;;;;;;24.94;54.24;100533.36;1839942;78;22224;-81
2021/07/25 07:30:00;;;;;;;11.93;10.50;;;;;;;24.96;53.85;100537.20;1805874;78;20925;-78
2021/07/25 07:32:27;;;;;;;18.75;10.30;;;;;;;24.92;53.18;100538.15;1807521;78;20938;-83
2021/07/25 07:34:54;;;;;;;12.98;10.60;;;;;;;24.90;53.45;100536.19;1797296;77;21072;-82
2021/07/25 07:37:21;;;;;;;14.18;11.38;;;;;;;24.90;53.74;100536.68;1775928;80;20941;-82
2021/07/25 07:39:47;;;;;;;17.27;11.10;;;;;;;24.91;53.97;100538.37;1785715;79;21733;-83
2021/07/25 07:42:14;;;;;;;14.25;11.60;;;;;;;24.91;53.76;100535.66;1809385;78;20988;-81
2021/07/25 07:44:40;;;;;;;14.73;11.33;;;;;;;24.87;53.58;100536.59;1818175;78;20965;-83
2021/07/25 07:47:08;;;;;;;18.95;12.35;;;;;;;24.88;54.14;100540.95;1806469;78;21110;-82
2021/07/25 07:49:34;;;;;;;16.55;12.05;;;;;;;24.93;53.50;100534.41;1803054;78;20989;-81
2021/07/25 07:52:02;;;;;;;18.55;12.85;;;;;;;25.00;53.10;100538.45;1795476;77;22211;-82
2021/07/25 07:54:28;;;;;;;22.75;13.40;;;;;;;25.03;52.81;100538.05;1761716;79;21089;-80
2021/07/25 07:56:55;;;;;;;15.38;10.68;;;;;;;25.00;52.68;100541.98;1728922;82;21069;-82
2021/07/25 07:59:22;;;;;;;11.90;10.25;;;;;;;25.00;52.76;100541.98;1715919;81;21070;-82
2021/07/25 08:01:49;;;;;;;12.75;10.60;;;;;;;25.02;52.94;100547.20;1710132;82;21584;-79
2021/07/25 08:04:15;;;;;;;11.00;9.68;;;;;;;25.03;53.40;100540.75;1717758;81;22229;-78
2021/07/25 08:06:42;;;;;;;20.90;10.05;;;;;;;25.03;53.15;100539.40;1728447;81;21041;-77
2021/07/25 08:09:08;;;;;;;11.38;9.35;;;;;;;25.03;52.94;100552.91;1797662;78;21092;-77
2021/07/25 08:11:35;;;;;;;15.70;10.78;;;;;;;25.07;53.22;100551.43;1789623;78;20992;-80
2021/07/25 08:14:02;;;;;;;11.33;9.48;;;;;;;25.13;52.61;100549.77;1792068;78;21024;-79
2021/07/25 08:16:28;;;;;;;18.02;10.15;;;;;;;25.18;52.93;100556.17;1822793;78;21767;-77
2021/07/25 08:18:55;;;;;;;13.50;9.90;;;;;;;25.26;53.38;100553.23;1807679;78;20968;-83
2021/07/25 08:21:22;;;;;;;10.80;9.70;;;;;;;25.35;53.47;100557.89;1786593;78;21032;-82
2021/07/25 08:23:49;;;;;;;11.80;9.63;;;;;;;25.38;53.08;100556.09;1789666;78;21042;-81
2021/07/25 08:26:16;;;;;;;15.60;9.38;;;;;;;25.42;53.10;100557.88;1785579;78;20993;-85
2021/07/25 08:28:43;;;;;;;14.13;9.50;;;;;;;25.42;53.09;100568.16;1807257;78;22173;-76
2021/07/25 08:31:10;;;;;;;13.90;9.03;;;;;;;25.42;52.52;100569.52;1804595;78;20950;-82
2021/07/25 08:33:36;;;;;;;15.70;8.90;;;;;;;25.44;52.16;100569.30;1805847;78;20968;-78
2021/07/25 08:36:03;;;;;;;10.15;8.28;;;;;;;25.43;51.86;100567.13;1804779;79;21083;-82
2021/07/25 08:38:30;;;;;;;9.55;8.00;;;;;;;25.47;51.25;100572.92;1821072;78;21000;-82
2021/07/25 08:41:33;;;;;;;8.30;7.37;;;;;;;25.53;51.39;100563.43;1802613;78;21730;-80
2021/07/25 08:44:38;;;;;;;10.23;6.78;;;;;;;25.65;50.52;100566.28;1788293;79;20976;-80
2021/07/25 08:47:18;;;;;;;11.48;7.30;;;;;;;25.84;49.26;100567.25;1791923;78;20984;-80
2021/07/25 08:50:03;;;;;;;7.67;6.55;;;;;;;25.97;48.59;100564.48;1809810;78;20976;-80
2021/07/25 08:52:32;;;;;;;7.87;6.97;;;;;;;26.12;49.07;100569.05;1802713;77;21421;-81
2021/07/25 08:55:03;;;;;;;8.45;6.95;;;;;;;26.18;48.95;100571.42;1807708;77;21802;-84
2021/07/25 08:57:36;;;;;;;11.68;6.80;;;;;;;26.21;49.25;100564.20;1789398;78;21431;-87
2021/07/25 09:00:04;;;;;;;7.95;6.70;;;;;;;26.19;49.57;100564.95;1830339;77;21499;-88
2021/07/25 09:02:31;;;;;;;8.08;7.17;;;;;;;26.17;49.50;100561.12;1835055;77;20937;-83
2021/07/25 09:04:58;;;;;;;8.13;6.35;;;;;;;26.13;49.77;100566.65;1823871;77;21359;-80
2021/07/25 09:07:29;;;;;;;8.78;7.00;;;;;;;26.12;49.96;100568.23;1816461;77;21802;-82
2021/07/25 09:10:06;;;;;;;11.35;6.90;;;;;;;26.10;50.36;100568.45;1813135;77;20981;-82
2021/07/25 09:12:34;;;;;;;10.28;6.40;;;;;;;26.11;50.06;100571.45;1820268;78;21448;-82
2021/07/25 09:15:05;;;;;;;9.38;6.53;;;;;;;26.11;49.40;100568.75;1820945;78;21440;-81
2021/07/25 09:17:32;;;;;;;9.35;6.80;;;;;;;26.15;49.27;100569.13;1802861;78;21046;-81
2021/07/25 09:20:25;;;;;;;8.05;6.97;;;;;;;26.22;49.67;100568.56;1825096;77;22859;-81
2021/07/25 09:23:17;;;;;;;9.63;6.78;;;;;;;26.32;49.73;100560.78;1816080;77;21109;-78
2021/07/25 09:25:56;;;;;;;7.28;6.28;;;;;;;26.45;48.82;100563.96;1828604;77;21027;-80
2021/07/25 09:28:32;;;;;;;9.63;6.35;;;;;;;26.60;47.78;100564.44;1799807;77;21000;-78
2021/07/25 09:31:11;;;;;;;10.48;6.50;;;;;;;26.83;47.36;100562.47;1816766;78;20944;-77
2021/07/25 09:33:43;;;;;;;11.35;6.58;;;;;;;27.06;46.21;100561.30;1819899;77;21821;-77
2021/07/25 09:36:18;;;;;;;8.28;6.78;;;;;;;27.26;44.47;100561.07;1783781;78;20948;-74
2021/07/25 09:38:47;;;;;;;12.33;6.70;;;;;;;27.42;44.84;100558.28;1817679;77;21433;-75
2021/07/25 09:41:22;;;;;;;9.35;6.50;;;;;;;27.54;43.98;100563.77;1812955;77;21495;-77
2021/07/25 09:44:01;;;;;;;7.90;6.15;;;;;;;27.59;43.19;100564.72;1822283;77;21047;-87
2021/07/25 09:46:46;;;;;;;8.25;6.83;;;;;;;27.65;42.80;100564.34;1828497;77;22252;-84
2021/07/25 09:49:13;;;;;;;7.75;6.28;;;;;;;27.78;42.24;100557.92;1821953;77;20999;-83
2021/07/25 09:51:41;;;;;;;9.03;6.50;;;;;;;27.92;42.92;100562.13;1791436;77;20960;-85
2021/07/25 09:54:07;;;;;;;8.05;6.05;;;;;;;28.09;42.79;100557.69;1775596;77;21027;-78
2021/07/25 09:56:34;;;;;;;27.62;6.92;;;;;;;28.27;41.59;100553.22;1804359;77;20980;-79
2021/07/25 09:59:00;;;;;;;26.93;6.75;;;;;;;28.43;40.30;100554.75;1830951;77;22235;-79
2021/07/25 10:01:42;;;;;;;13.10;6.22;;;;;;;28.53;40.84;100549.27;1848515;77;21010;-76
2021/07/25 10:04:17;;;;;;;9.48;6.30;;;;;;;28.67;41.20;100551.53;1811667;77;21031;-77
2021/07/25 10:06:51;;;;;;;11.08;6.20;;;;;;;28.86;40.51;100544.08;1802371;77;21474;-78
2021/07/25 10:09:20;;;;;;;7.70;6.15;;;;;;;29.04;38.75;100549.91;1822512;77;20810;-78
2021/07/25 10:11:59;;;;;;;8.63;5.80;;;;;;;29.01;38.50;100556.66;1827226;77;21805;-79
2021/07/25 10:14:29;;;;;;;10.43;5.95;;;;;;;29.04;37.98;100555.34;1860785;77;21013;-81
2021/07/25 10:16:56;;;;;;;6.58;5.33;;;;;;;29.18;38.57;100555.94;1828906;76;20995;-80
2021/07/25 10:19:36;;;;;;;11.20;6.22;;;;;;;29.35;38.46;100548.69;1833737;77;21428;-76
2021/07/25 10:22:09;;;;;;;11.80;6.22;;;;;;;29.44;37.81;100554.58;1821342;77;21004;-78
2021/07/25 10:24:35;;;;;;;6.60;5.60;;;;;;;29.44;37.81;100554.58;1802862;77;22506;-86
2021/07/25 10:27:02;;;;;;;6.25;5.65;;;;;;;29.74;37.27;100555.20;1822652;77;21510;-80
2021/07/25 10:29:30;;;;;;;7.55;5.85;;;;;;;29.83;37.24;100546.92;1830817;77;20999;-83
2021/07/25 10:31:57;;;;;;;7.12;5.35;;;;;;;29.83;37.24;100546.92;1794135;78;21082;-80
2021/07/25 10:34:23;;;;;;;7.95;5.80;;;;;;;29.98;37.09;100548.25;1826704;77;20965;-79
2021/07/25 10:36:53;;;;;;;6.47;5.80;;;;;;;30.11;35.22;100550.69;1818289;77;22234;-79
2021/07/25 10:39:20;;;;;;;9.70;5.80;;;;;;;30.09;35.54;100553.66;1788513;80;20936;-78
2021/07/25 10:41:48;;;;;;;8.60;5.58;;;;;;;30.19;36.33;100559.28;1791149;78;21134;-78
2021/07/25 10:44:16;;;;;;;6.15;5.55;;;;;;;30.40;35.70;100556.38;1810280;77;21000;-77
2021/07/25 10:46:46;;;;;;;5.90;5.35;;;;;;;30.51;34.03;100558.73;1815298;77;20992;-81
2021/07/25 10:49:16;;;;;;;7.33;5.45;;;;;;;30.62;33.89;100555.08;1818744;77;21748;-81
2021/07/25 10:52:02;;;;;;;8.60;5.80;;;;;;;30.69;34.94;100557.13;1759454;78;21040;-83
2021/07/25 10:54:31;;;;;;;7.15;5.50;;;;;;;30.84;35.28;100555.69;1789609;77;20941;-81
2021/07/25 10:57:10;;;;;;;6.65;5.70;;;;;;;30.96;34.61;100561.85;1819216;77;21469;-81
2021/07/25 10:59:48;;;;;;;9.58;5.72;;;;;;;30.93;33.47;100558.27;1776588;80;21059;-80
2021/07/25 11:02:25;;;;;;;7.92;5.40;;;;;;;30.92;32.87;100563.45;1841902;77;21721;-81
2021/07/25 11:04:57;;;;;;;8.35;5.60;;;;;;;30.96;32.40;100557.22;1809087;77;21058;-83
2021/07/25 11:07:29;;;;;;;11.78;7.17;;;;;;;31.01;32.84;100558.67;1786093;78;21420;-82
2021/07/25 11:10:12;;;;;;;12.87;7.63;;;;;;;31.13;32.71;100564.54;1821559;78;21032;-85
2021/07/25 11:12:55;;;;;;;7.03;6.33;;;;;;;31.32;33.44;100570.83;1801507;77;20956;-83
2021/07/25 11:15:32;;;;;;;7.33;5.75;;;;;;;31.63;31.94;100561.09;1824918;77;22178;-83
2021/07/25 11:18:08;;;;;;;11.70;6.95;;;;;;;31.72;31.50;100560.62;1822696;77;20916;-83
2021/07/25 11:20:57;;;;;;;10.15;7.62;;;;;;;31.77;32.80;100562.92;1810216;78;21035;-83
2021/07/25 11:23:27;;;;;;;13.80;8.55;;;;;;;31.86;31.47;100562.74;1809891;77;21124;-83
2021/07/25 11:25:54;;;;;;;8.15;7.12;;;;;;;31.99;32.26;100552.47;1840375;77;20993;-84